Time;durP1;ratioP1;P1;durP2;ratioP2;P2;SDS_P1;SDS_P2;PMS_P1;PMS_P2;Temp;Humidity;BMP_temperature;BMP_pressure;BME280_temperature;BME280_humidity;BME280_pressure;Samples;Min_cycle;Max_cycle;Signal;HPM_P1;HPM_P2
2022/05/11 00:00:35;;;;;;;4.78;2.33;;;17.40;99.90;;;;;;6181808;23;20001;-84
2022/05/11 00:03:24;;;;;;;;;;;;;;;;;;;;;
2022/05/11 00:06:05;;;;;;;4.88;2.38;;;17.30;99.90;;;;;;6183722;23;20100;-85
2022/05/11 00:08:54;;;;;;;3.97;2.10;;;17.30;99.90;;;;;;6181709;23;20009;-85
2022/05/11 00:11:46;;;;;;;4.57;2.10;;;17.20;99.90;;;;;;6155323;22;20297;-85
2022/05/11 00:14:22;;;;;;;5.85;2.42;;;17.20;99.90;;;;;;6180440;23;20080;-84
2022/05/11 00:16:48;;;;;;;6.35;2.13;;;17.40;99.90;;;;;;6179748;23;20009;-85
2022/05/11 00:19:37;;;;;;;3.70;2.10;;;17.20;99.90;;;;;;6179130;23;20031;-85
2022/05/11 00:22:47;;;;;;;4.28;2.10;;;17.20;99.90;;;;;;6180656;23;20080;-84
2022/05/11 00:25:50;;;;;;;3.90;1.88;;;17.20;99.90;;;;;;6181991;23;20009;-84
2022/05/11 00:28:49;;;;;;;;;;;;;;;;;;;;;
2022/05/11 00:31:43;;;;;;;4.82;1.90;;;17.20;99.90;;;;;;6180644;23;20072;-85
2022/05/11 00:34:31;;;;;;;3.50;1.70;;;17.20;99.90;;;;;;6178710;23;20053;-84
2022/05/11 00:37:21;;;;;;;4.32;2.20;;;17.00;99.90;;;;;;6180756;23;20090;-84
2022/05/11 00:39:57;;;;;;;3.08;1.58;;;17.00;99.90;;;;;;6173401;23;20001;-84
2022/05/11 00:42:42;;;;;;;3.20;1.67;;;17.00;99.90;;;;;;6178691;23;20363;-85
2022/05/11 00:45:33;;;;;;;4.75;2.00;;;17.00;99.90;;;;;;6181258;23;20006;-85
2022/05/11 00:53:00;;;;;;;3.75;1.67;;;17.00;99.90;;;;;;5053825;28;20428;-83
2022/05/11 00:55:30;;;;;;;4.30;1.88;;;17.00;99.90;;;;;;5059467;28;20056;-82
2022/05/11 00:58:06;;;;;;;3.13;1.73;;;16.90;99.90;;;;;;5056570;28;20037;-82
2022/05/11 01:00:32;;;;;;;3.83;2.10;;;16.90;99.90;;;;;;5053411;28;20055;-82
2022/05/11 01:03:09;;;;;;;4.90;1.83;;;16.90;99.90;;;;;;5050968;28;20029;-82
2022/05/11 01:05:35;;;;;;;3.20;1.90;;;16.80;99.90;;;;;;5045346;28;20028;-83
2022/05/11 01:08:00;;;;;;;3.00;1.55;;;16.80;99.90;;;;;;5056144;28;20737;-82
2022/05/11 01:10:28;;;;;;;4.28;2.35;;;16.80;99.90;;;;;;5053225;28;20059;-82
2022/05/11 01:12:58;;;;;;;3.78;2.08;;;16.80;99.90;;;;;;5052701;28;20017;-82
2022/05/11 01:15:25;;;;;;;4.28;2.30;;;16.70;99.90;;;;;;5060979;28;20028;-82
2022/05/11 01:17:52;;;;;;;3.17;1.90;;;16.60;99.90;;;;;;5059645;28;20017;-82
2022/05/11 01:20:21;;;;;;;3.17;1.88;;;16.50;99.90;;;;;;5058717;28;20026;-85
2022/05/11 01:23:34;;;;;;;3.80;1.90;;;16.50;99.90;;;;;;5058457;28;20021;-82
2022/05/11 01:26:01;;;;;;;3.47;1.75;;;16.50;99.90;;;;;;5055006;28;20037;-83
2022/05/11 01:28:26;;;;;;;3.78;2.30;;;16.40;99.90;;;;;;5055451;28;20064;-83
2022/05/11 01:31:03;;;;;;;3.33;1.60;;;16.40;99.90;;;;;;5057964;28;20072;-83
2022/05/11 01:33:30;;;;;;;4.47;2.10;;;16.30;99.90;;;;;;5055241;28;20032;-83
2022/05/11 01:36:15;;;;;;;2.85;1.58;;;16.20;99.90;;;;;;5048826;28;20029;-82
2022/05/11 01:38:42;;;;;;;3.88;1.90;;;16.20;99.90;;;;;;5050646;28;20025;-83
2022/05/11 01:41:11;;;;;;;4.72;2.00;;;16.10;99.90;;;;;;5055772;28;20112;-83
2022/05/11 01:43:39;;;;;;;3.78;2.15;;;16.10;99.90;;;;;;5056404;28;20119;-83
2022/05/11 01:46:05;;;;;;;4.13;1.95;;;16.10;99.90;;;;;;5052707;28;20037;-83
2022/05/11 01:48:31;;;;;;;3.25;1.70;;;16.10;99.90;;;;;;5053493;28;20381;-83
2022/05/11 01:50:57;;;;;;;4.43;2.20;;;16.10;99.90;;;;;;5055277;28;20025;-82
2022/05/11 01:53:23;;;;;;;3.85;1.73;;;16.10;99.90;;;;;;5055926;28;20078;-82
2022/05/11 01:55:49;;;;;;;3.28;1.85;;;16.10;99.90;;;;;;5053753;28;20036;-83
2022/05/11 01:58:16;;;;;;;3.95;2.00;;;16.10;99.90;;;;;;5045128;28;20021;-83
2022/05/11 02:00:44;;;;;;;3.78;1.90;;;16.10;99.90;;;;;;5056842;28;20025;-83
2022/05/11 02:03:11;;;;;;;5.22;1.92;;;16.00;99.90;;;;;;5045689;28;20087;-82
2022/05/11 02:08:21;;;;;;;4.57;1.83;;;16.00;99.90;;;;;;5040020;28;20127;-83
2022/05/11 02:10:47;;;;;;;4.13;2.28;;;16.00;99.90;;;;;;5041036;28;20048;-83
2022/05/11 02:13:13;;;;;;;3.92;1.88;;;16.00;99.90;;;;;;5041748;28;20474;-82
2022/05/11 02:15:39;;;;;;;3.55;1.80;;;16.00;99.90;;;;;;5041570;28;20056;-83
2022/05/11 02:18:06;;;;;;;3.63;2.03;;;15.80;99.90;;;;;;5041821;28;20026;-83
2022/05/11 02:20:33;;;;;;;4.43;2.08;;;15.90;99.90;;;;;;5038869;28;20017;-83
2022/05/11 02:22:58;;;;;;;3.95;2.03;;;15.90;99.90;;;;;;5040162;28;20025;-82
2022/05/11 02:25:24;;;;;;;4.53;2.47;;;15.90;99.90;;;;;;5055373;28;20053;-83
2022/05/11 02:27:51;;;;;;;4.15;1.90;;;15.90;99.90;;;;;;5033191;28;20028;-83
2022/05/11 02:30:24;;;;;;;4.00;2.17;;;15.90;99.90;;;;;;5041507;28;20029;-82
2022/05/11 02:32:50;;;;;;;4.35;2.15;;;15.80;99.90;;;;;;5041050;28;20025;-82
2022/05/11 02:35:16;;;;;;;5.50;2.40;;;15.80;99.90;;;;;;5042140;28;20090;-83
2022/05/11 02:37:48;;;;;;;3.38;1.90;;;15.90;99.90;;;;;;5039678;28;20470;-82
2022/05/11 02:40:18;;;;;;;;;;;15.80;99.90;;;;;;5042241;28;20028;-83
2022/05/11 02:42:44;;;;;;;4.03;2.17;;;15.80;99.90;;;;;;5034845;28;19919;-82
2022/05/11 02:45:11;;;;;;;3.92;1.90;;;15.80;99.90;;;;;;5040787;28;20021;-82
2022/05/11 02:47:37;;;;;;;3.40;1.92;;;15.70;99.90;;;;;;5033102;28;20232;-82
2022/05/11 02:50:05;;;;;;;5.00;2.15;;;15.70;99.90;;;;;;5041229;28;20079;-82
2022/05/11 02:52:32;;;;;;;4.10;2.10;;;15.70;99.90;;;;;;5036770;28;20394;-82
2022/05/11 02:54:57;;;;;;;4.25;2.28;;;15.70;99.90;;;;;;5035764;28;20484;-82
2022/05/11 02:57:23;;;;;;;3.60;2.13;;;15.70;99.90;;;;;;5034374;28;20022;-83
2022/05/11 02:59:49;;;;;;;3.72;2.03;;;15.70;99.90;;;;;;5033141;28;20025;-83
2022/05/11 03:02:18;;;;;;;4.75;2.13;;;15.60;99.90;;;;;;5033087;28;20026;-83
2022/05/11 03:04:43;;;;;;;3.85;2.00;;;15.60;99.90;;;;;;5036207;28;20026;-83
2022/05/11 03:07:09;;;;;;;5.18;2.20;;;15.50;99.90;;;;;;5036844;28;20036;-83
2022/05/11 03:09:34;;;;;;;4.82;2.25;;;15.60;99.90;;;;;;5030548;28;20036;-83
2022/05/11 03:12:00;;;;;;;4.40;2.20;;;15.60;99.90;;;;;;5035804;28;20109;-82
2022/05/11 03:14:26;;;;;;;3.33;1.95;;;15.60;99.90;;;;;;5034337;28;20028;-83
2022/05/11 03:16:51;;;;;;;4.05;2.17;;;15.60;99.90;;;;;;5033540;28;20041;-83
2022/05/11 03:19:17;;;;;;;8.15;2.20;;;15.60;99.90;;;;;;5035536;28;20396;-82
2022/05/11 03:21:42;;;;;;;4.03;2.25;;;15.60;99.90;;;;;;5031310;28;20557;-83
2022/05/11 03:24:08;;;;;;;4.68;2.40;;;15.60;99.90;;;;;;5033382;28;20029;-82
2022/05/11 03:26:35;;;;;;;3.28;1.88;;;15.50;99.90;;;;;;5030823;28;20562;-83
2022/05/11 03:29:05;;;;;;;4.47;2.05;;;15.60;99.90;;;;;;5033374;28;20079;-82
2022/05/11 03:31:35;;;;;;;3.15;1.80;;;15.60;99.90;;;;;;5030800;28;20086;-81
2022/05/11 03:36:47;;;;;;;3.80;1.88;;;15.50;99.90;;;;;;5031744;28;20059;-83
2022/05/11 03:39:15;;;;;;;4.47;2.10;;;15.40;99.90;;;;;;5033501;28;20121;-82
2022/05/11 03:41:41;;;;;;;4.35;2.08;;;15.40;99.90;;;;;;5035460;28;20537;-83
2022/05/11 03:44:07;;;;;;;3.72;1.95;;;15.40;99.90;;;;;;5033385;28;20402;-82
2022/05/11 03:46:32;;;;;;;4.80;2.28;;;15.40;99.90;;;;;;5034217;28;20025;-83
2022/05/11 03:48:58;;;;;;;3.90;2.00;;;15.30;99.90;;;;;;5037475;28;20029;-82
2022/05/11 03:51:24;;;;;;;3.70;1.88;;;15.30;99.90;;;;;;5035027;28;20052;-82
2022/05/11 03:53:50;;;;;;;3.92;2.08;;;15.20;99.90;;;;;;5035095;28;20022;-82
2022/05/11 03:56:17;;;;;;;6.82;2.10;;;15.30;99.90;;;;;;5039237;28;20033;-81
2022/05/11 03:58:45;;;;;;;4.82;2.20;;;15.20;99.90;;;;;;5035224;28;20104;-83
2022/05/11 04:01:11;;;;;;;3.45;1.83;;;15.30;99.90;;;;;;5037064;28;20017;-83
2022/05/11 04:03:36;;;;;;;6.78;2.40;;;15.30;99.90;;;;;;5045072;28;20029;-83
2022/05/11 04:06:02;;;;;;;5.18;2.20;;;15.20;99.90;;;;;;5042959;28;20059;-82
2022/05/11 04:08:27;;;;;;;5.28;2.30;;;15.20;99.90;;;;;;5043403;28;20076;-82
2022/05/11 04:10:54;;;;;;;6.18;1.90;;;15.20;99.90;;;;;;5043705;28;20064;-83
2022/05/11 04:13:20;;;;;;;3.97;2.20;;;15.20;99.90;;;;;;5046278;28;20033;-82
2022/05/11 04:15:51;;;;;;;4.68;1.95;;;15.20;99.90;;;;;;5041977;28;20091;-83
2022/05/11 04:18:18;;;;;;;4.30;2.03;;;15.20;99.90;;;;;;5032090;28;20033;-81
2022/05/11 04:20:44;;;;;;;3.75;2.08;;;15.10;99.90;;;;;;5040087;28;20025;-83
2022/05/11 04:23:10;;;;;;;4.18;2.10;;;15.00;99.90;;;;;;5037227;28;20120;-83
2022/05/11 04:25:35;;;;;;;4.43;2.42;;;15.00;99.90;;;;;;5039375;28;20056;-83
2022/05/11 04:28:02;;;;;;;5.32;2.35;;;15.00;99.90;;;;;;5033163;28;20029;-83
2022/05/11 04:30:31;;;;;;;3.70;2.10;;;15.00;99.90;;;;;;5031254;28;20108;-83
2022/05/11 04:32:58;;;;;;;4.57;2.08;;;15.10;99.90;;;;;;5035815;28;20021;-83
2022/05/11 04:35:30;;;;;;;4.43;2.30;;;15.10;99.90;;;;;;5037887;28;20025;-83
2022/05/11 04:37:59;;;;;;;;;;;15.10;99.90;;;;;;5037734;28;20025;-83
2022/05/11 04:40:26;;;;;;;3.17;1.63;;;15.10;99.90;;;;;;5039410;28;19917;-83
2022/05/11 04:42:52;;;;;;;3.28;1.83;;;15.10;99.90;;;;;;5033760;28;20093;-82
2022/05/11 04:45:18;;;;;;;3.63;1.95;;;15.20;99.90;;;;;;5034747;28;20080;-83
2022/05/11 04:47:44;;;;;;;3.88;2.10;;;15.20;99.90;;;;;;5035917;28;20037;-84
2022/05/11 04:50:12;;;;;;;4.13;2.20;;;15.20;99.90;;;;;;5039187;28;20021;-83
2022/05/11 04:52:38;;;;;;;3.65;1.70;;;15.10;99.90;;;;;;5038032;28;20036;-83
2022/05/11 04:55:05;;;;;;;4.90;2.30;;;15.10;99.90;;;;;;5034979;28;20036;-82
2022/05/11 04:57:32;;;;;;;4.75;2.20;;;15.20;99.90;;;;;;5033691;28;20413;-83
2022/05/11 04:59:58;;;;;;;3.42;1.90;;;15.20;99.90;;;;;;5035131;28;20146;-83
2022/05/11 05:02:27;;;;;;;5.47;2.50;;;15.20;99.90;;;;;;5035101;28;20029;-82
2022/05/11 05:04:58;;;;;;;5.45;2.53;;;15.20;99.90;;;;;;5031682;28;20124;-83
2022/05/11 05:07:24;;;;;;;3.97;2.42;;;15.20;99.90;;;;;;5035845;28;20029;-83
2022/05/11 05:09:50;;;;;;;3.80;1.90;;;15.20;99.90;;;;;;5029737;28;20048;-82
2022/05/11 05:12:16;;;;;;;3.45;1.90;;;15.30;99.90;;;;;;5028390;28;20712;-82
2022/05/11 05:14:42;;;;;;;4.47;2.20;;;15.30;99.90;;;;;;5032425;28;20049;-82
2022/05/11 05:17:10;;;;;;;3.72;2.15;;;15.30;99.90;;;;;;5031923;28;20033;-80
2022/05/11 05:19:38;;;;;;;4.28;2.05;;;15.50;99.90;;;;;;5037854;28;20025;-83
2022/05/11 05:22:03;;;;;;;4.57;2.15;;;15.60;99.90;;;;;;5037790;28;20033;-83
2022/05/11 05:24:32;;;;;;;3.63;1.95;;;15.60;99.90;;;;;;5035684;28;20056;-82
2022/05/11 05:26:59;;;;;;;5.25;1.85;;;15.60;99.90;;;;;;5034260;28;20049;-83
2022/05/11 05:32:09;;;;;;;4.20;2.20;;;15.80;99.90;;;;;;5034522;28;20059;-84
2022/05/11 05:34:35;;;;;;;3.47;1.70;;;15.90;99.90;;;;;;5035540;28;20084;-83
2022/05/11 05:37:01;;;;;;;3.70;1.98;;;15.90;99.90;;;;;;5042262;28;20100;-83
2022/05/11 05:39:26;;;;;;;4.50;2.38;;;16.00;99.90;;;;;;5041585;28;20034;-83
2022/05/11 05:41:52;;;;;;;3.58;1.75;;;16.10;99.90;;;;;;5022401;28;20454;-83
2022/05/11 05:44:19;;;;;;;3.67;2.08;;;16.20;99.90;;;;;;5048147;28;20084;-84
2022/05/11 05:46:45;;;;;;;4.57;1.88;;;16.30;99.90;;;;;;5056231;28;20032;-83
2022/05/11 05:49:12;;;;;;;3.50;1.85;;;16.40;99.90;;;;;;5026177;28;20097;-84
2022/05/11 05:51:39;;;;;;;2.90;1.67;;;16.50;99.90;;;;;;5042957;28;20069;-84
2022/05/11 05:54:06;;;;;;;4.07;2.13;;;16.60;99.90;;;;;;5052603;28;20091;-84
2022/05/11 05:56:32;;;;;;;3.72;1.90;;;16.70;99.90;;;;;;5041167;28;20477;-84
2022/05/11 05:59:03;;;;;;;4.93;2.22;;;16.80;99.90;;;;;;5048873;28;20035;-85
2022/05/11 06:01:29;;;;;;;3.88;1.85;;;16.90;99.90;;;;;;5062163;28;20037;-84
2022/05/11 06:03:54;;;;;;;2.67;1.80;;;17.00;99.90;;;;;;5054842;28;20397;-84
2022/05/11 06:06:21;;;;;;;7.53;2.63;;;17.10;99.90;;;;;;5037358;28;20416;-84
2022/05/11 06:08:46;;;;;;;3.70;1.90;;;17.20;99.90;;;;;;5033028;28;20075;-84
2022/05/11 06:11:12;;;;;;;3.67;1.80;;;17.40;99.90;;;;;;5037573;28;20022;-84
2022/05/11 06:13:39;;;;;;;3.55;1.88;;;17.50;99.90;;;;;;5037659;28;20075;-83
2022/05/11 06:16:10;;;;;;;2.90;1.80;;;17.60;99.90;;;;;;5037845;28;20020;-84
2022/05/11 06:18:36;;;;;;;4.15;1.98;;;17.70;99.90;;;;;;5029333;28;20501;-83
2022/05/11 06:21:03;;;;;;;3.33;2.08;;;17.90;99.90;;;;;;5033856;28;20475;-84
2022/05/11 06:23:28;;;;;;;3.83;2.03;;;17.90;99.90;;;;;;5044923;28;20037;-84
2022/05/11 06:25:54;;;;;;;4.07;1.88;;;18.00;99.90;;;;;;5041576;28;20104;-85
2022/05/11 06:28:20;;;;;;;3.40;1.77;;;18.10;99.90;;;;;;5055539;28;20036;-84
2022/05/11 06:30:47;;;;;;;3.40;1.80;;;18.50;99.90;;;;;;5059909;28;20021;-84
2022/05/11 06:33:13;;;;;;;3.60;1.55;;;18.50;99.90;;;;;;5061625;28;20017;-84
2022/05/11 06:35:38;;;;;;;3.67;1.70;;;18.50;99.90;;;;;;5029760;28;20433;-84
2022/05/11 06:38:06;;;;;;;4.07;1.67;;;18.70;99.90;;;;;;5020920;28;20022;-84
2022/05/11 06:40:33;;;;;;;5.07;1.80;;;18.80;99.90;;;;;;5034391;28;20017;-84
2022/05/11 06:43:01;;;;;;;3.38;1.60;;;19.00;99.90;;;;;;5041912;28;20055;-83
2022/05/11 06:45:28;;;;;;;3.88;1.33;;;19.00;99.90;;;;;;5037493;28;20081;-84
2022/05/11 06:47:56;;;;;;;3.25;1.40;;;19.00;99.90;;;;;;5059123;28;20070;-84
2022/05/11 06:50:24;;;;;;;3.28;1.67;;;19.10;99.90;;;;;;5059210;28;20021;-84
2022/05/11 06:53:32;;;;;;;3.33;1.63;;;19.20;99.90;;;;;;5049483;22;20045;-86
2022/05/11 06:59:26;;;;;;;3.38;1.73;;;19.40;99.90;;;;;;5039956;28;20036;-88
2022/05/11 07:05:25;;;;;;;;;;;;;;;;;;;;;
2022/05/11 07:08:14;;;;;;;2.42;1.35;;;19.90;99.90;;;;;;5063131;28;20071;-88
2022/05/11 07:12:17;;;;;;;3.95;1.55;;;19.80;99.90;;;;;;5063959;28;20065;-87
2022/05/11 07:13:38;;;;;;;2.60;1.23;;;20.20;99.90;;;;;;5046897;28;20029;-88
2022/05/11 07:16:06;;;;;;;2.53;1.30;;;20.10;99.90;;;;;;5055421;28;20128;-87
2022/05/11 07:18:37;;;;;;;2.60;1.73;;;20.10;99.90;;;;;;5064983;28;20048;-87
2022/05/11 07:21:05;;;;;;;3.22;1.42;;;20.10;99.90;;;;;;5058006;28;20175;-88
2022/05/11 07:23:41;;;;;;;2.03;1.08;;;20.10;99.90;;;;;;5057560;28;20389;-88
2022/05/11 07:26:28;;;;;;;4.78;1.42;;;20.40;99.90;;;;;;5050819;28;20033;-88
2022/05/11 07:28:59;;;;;;;2.85;1.20;;;20.60;99.90;;;;;;5040552;28;20033;-88
2022/05/11 07:31:27;;;;;;;2.65;1.27;;;20.70;99.90;;;;;;5049624;28;20032;-88
2022/05/11 07:33:55;;;;;;;2.47;1.30;;;20.80;99.90;;;;;;5057417;28;20037;-87
2022/05/11 07:36:27;;;;;;;2.42;1.48;;;21.10;99.90;;;;;;5057829;28;20393;-88
2022/05/11 07:38:54;;;;;;;2.80;1.30;;;20.90;99.90;;;;;;5053858;28;20048;-89
2022/05/11 07:41:23;;;;;;;2.08;1.02;;;21.20;99.90;;;;;;5055570;28;20115;-88
2022/05/11 07:43:49;;;;;;;2.30;1.23;;;21.30;99.90;;;;;;5056409;28;20397;-89
2022/05/11 07:46:18;;;;;;;2.30;1.10;;;21.30;99.90;;;;;;5054997;28;20566;-90
2022/05/11 07:48:55;;;;;;;2.60;1.25;;;21.60;99.90;;;;;;5057759;28;20035;-91
2022/05/11 07:51:21;;;;;;;1.55;0.93;;;21.70;99.90;;;;;;5057644;28;20115;-90
2022/05/11 07:53:47;;;;;;;2.15;0.90;;;21.70;99.90;;;;;;5056825;28;20048;-91
2022/05/11 08:01:51;;;;;;;2.30;1.20;;;22.00;99.90;;;;;;5045181;28;20108;-89
2022/05/11 08:04:30;;;;;;;2.70;1.00;;;22.20;99.80;;;;;;5059529;28;20142;-90
2022/05/11 08:06:56;;;;;;;1.98;0.98;;;22.20;99.20;;;;;;5067183;28;20032;-90
2022/05/11 08:09:39;;;;;;;1.52;0.90;;;22.30;99.00;;;;;;5055730;28;20028;-90
2022/05/11 08:12:09;;;;;;;1.95;1.05;;;22.20;99.00;;;;;;5054611;28;20037;-89
2022/05/11 08:14:37;;;;;;;4.57;1.33;;;22.40;98.90;;;;;;5047458;28;20076;-90
2022/05/11 08:17:24;;;;;;;2.25;1.10;;;22.40;98.70;;;;;;5049519;28;20025;-90
2022/05/11 08:19:59;;;;;;;3.10;1.20;;;22.70;98.50;;;;;;5047048;28;20437;-90
2022/05/11 08:22:35;;;;;;;3.25;1.10;;;22.70;98.30;;;;;;5068726;28;20044;-90
2022/05/11 08:25:16;;;;;;;2.75;1.02;;;22.80;97.70;;;;;;5063626;28;20033;-90
2022/05/11 08:27:42;;;;;;;2.13;1.20;;;23.30;98.10;;;;;;5058282;28;20107;-89
2022/05/11 08:35:45;;;;;;;2.55;1.13;;;23.10;98.40;;;;;;5055856;28;20028;-91
2022/05/11 08:38:14;;;;;;;2.30;1.10;;;23.20;97.40;;;;;;5056539;28;20021;-90
2022/05/11 08:40:57;;;;;;;1.70;0.82;;;23.30;97.30;;;;;;5061602;28;20401;-90
2022/05/11 08:43:52;;;;;;;3.33;1.33;;;23.40;97.00;;;;;;5056410;28;20018;-90
2022/05/11 08:47:06;;;;;;;2.58;0.95;;;23.50;95.80;;;;;;5038599;28;20136;-90
2022/05/11 08:50:16;;;;;;;;;;;;;;;;;;;;;
2022/05/11 08:53:34;;;;;;;1.98;1.13;;;23.90;96.60;;;;;;5050895;28;20112;-90
2022/05/11 08:56:27;;;;;;;2.85;1.25;;;24.00;94.30;;;;;;5046074;28;20099;-89
2022/05/11 08:58:54;;;;;;;2.28;1.08;;;24.30;95.20;;;;;;5048505;28;20521;-89
2022/05/11 09:01:28;;;;;;;1.90;1.05;;;24.50;95.10;;;;;;5051270;28;20051;-89
2022/05/11 09:03:54;;;;;;;2.10;1.10;;;24.50;94.90;;;;;;5051459;28;20044;-90
2022/05/11 09:06:24;;;;;;;2.78;1.30;;;24.40;94.10;;;;;;5049981;28;20057;-88
2022/05/11 09:08:50;;;;;;;2.70;1.20;;;24.50;95.20;;;;;;5030375;28;20021;-89
2022/05/11 09:11:43;;;;;;;3.65;1.40;;;24.30;94.40;;;;;;5030005;28;20022;-89
2022/05/11 09:14:13;;;;;;;3.65;1.13;;;24.50;94.60;;;;;;5034587;28;20022;-89
2022/05/11 09:16:49;;;;;;;2.90;1.10;;;24.70;94.10;;;;;;5034009;28;20054;-89
2022/05/11 09:19:20;;;;;;;2.10;1.23;;;24.80;93.20;;;;;;5034274;28;20030;-89
2022/05/11 09:22:10;;;;;;;1.95;1.15;;;24.80;93.00;;;;;;5034278;28;20128;-90
2022/05/11 09:24:53;;;;;;;2.78;1.23;;;25.00;92.70;;;;;;5044208;28;20442;-89
2022/05/11 09:27:31;;;;;;;2.28;1.10;;;24.90;93.00;;;;;;5065755;28;20044;-90
2022/05/11 09:30:24;;;;;;;4.18;1.45;;;24.80;93.10;;;;;;5045323;28;20033;-88
2022/05/11 09:33:14;;;;;;;2.42;1.15;;;24.90;92.80;;;;;;5048156;28;20100;-89
2022/05/11 09:35:42;;;;;;;2.45;0.98;;;25.00;93.00;;;;;;5050446;28;20028;-89
2022/05/11 09:38:10;;;;;;;1.63;1.00;;;24.90;92.90;;;;;;5045119;28;20021;-89
2022/05/11 09:40:56;;;;;;;2.42;1.05;;;25.00;92.70;;;;;;5043815;28;20551;-89
2022/05/11 09:43:35;;;;;;;2.28;1.08;;;25.10;93.10;;;;;;5049173;28;20017;-90
2022/05/11 09:46:19;;;;;;;2.63;1.38;;;25.20;92.40;;;;;;5045017;28;20025;-89
2022/05/11 09:49:13;;;;;;;2.17;1.20;;;25.20;92.30;;;;;;5048373;28;20025;-90
2022/05/11 09:51:38;;;;;;;2.58;1.15;;;25.30;92.70;;;;;;5049655;28;20072;-89
2022/05/11 09:54:16;;;;;;;2.28;1.17;;;25.40;92.90;;;;;;5044037;28;20029;-89
2022/05/11 09:56:49;;;;;;;2.15;1.10;;;25.50;92.50;;;;;;5042120;28;20126;-89
2022/05/11 09:59:36;;;;;;;2.60;1.30;;;25.70;92.40;;;;;;5050819;28;20075;-89
2022/05/11 10:02:24;;;;;;;2.63;1.20;;;25.70;91.90;;;;;;5042323;28;20060;-89
2022/05/11 10:05:17;;;;;;;3.00;1.10;;;26.00;92.00;;;;;;5049706;28;20388;-89
2022/05/11 10:07:52;;;;;;;2.20;1.15;;;26.10;91.60;;;;;;5045573;28;20055;-90
2022/05/11 10:10:27;;;;;;;3.70;1.35;;;26.00;90.70;;;;;;5046899;28;20294;-91
2022/05/11 10:13:01;;;;;;;1.92;1.00;;;26.00;90.60;;;;;;5049403;28;20052;-90
2022/05/11 10:21:50;;;;;;;2.33;1.27;;;26.30;90.00;;;;;;5044902;28;20073;-90
2022/05/11 10:24:43;;;;;;;1.75;1.08;;;26.40;88.90;;;;;;5046405;28;20121;-90
2022/05/11 10:27:20;;;;;;;2.20;1.13;;;26.60;89.20;;;;;;5040987;28;20116;-90
2022/05/11 10:30:04;;;;;;;2.67;1.13;;;26.60;87.70;;;;;;5044772;28;20048;-90
2022/05/11 10:32:46;;;;;;;2.40;0.80;;;26.60;86.10;;;;;;5043742;28;20099;-89
2022/05/11 10:35:34;;;;;;;1.58;0.77;;;26.80;86.90;;;;;;5050652;28;20029;-90
2022/05/11 10:38:30;;;;;;;2.08;0.98;;;26.60;85.10;;;;;;5046895;28;20026;-91
2022/05/11 10:41:14;;;;;;;1.80;0.80;;;26.90;85.90;;;;;;5048688;28;20421;-90
2022/05/11 10:44:13;;;;;;;2.28;0.98;;;26.90;83.20;;;;;;5044561;28;20071;-90
2022/05/11 10:46:54;;;;;;;2.63;0.93;;;27.20;83.90;;;;;;5037869;28;20022;-91
2022/05/11 10:49:48;;;;;;;1.90;0.85;;;27.20;83.20;;;;;;5045195;28;20021;-89
2022/05/11 10:52:19;;;;;;;2.00;1.10;;;27.30;83.80;;;;;;5047011;28;20021;-90
2022/05/11 10:54:54;;;;;;;2.10;0.95;;;27.40;82.30;;;;;;5042715;28;20147;-90
2022/05/11 10:57:33;;;;;;;1.67;0.88;;;27.50;82.00;;;;;;5047054;28;20021;-90
2022/05/11 11:00:12;;;;;;;1.65;0.98;;;27.80;81.30;;;;;;5048945;28;20493;-89
2022/05/11 11:02:51;;;;;;;2.60;0.90;;;27.80;80.20;;;;;;5044601;28;20044;-90
2022/05/11 11:05:28;;;;;;;2.25;1.00;;;28.00;78.30;;;;;;5045077;28;20037;-90
2022/05/11 11:08:01;;;;;;;2.05;0.80;;;27.90;77.20;;;;;;5049612;28;20028;-91
2022/05/11 11:10:57;;;;;;;4.68;1.80;;;27.80;77.80;;;;;;5043176;28;20500;-91
2022/05/11 11:13:37;;;;;;;2.47;1.00;;;28.00;76.10;;;;;;5031449;28;20206;-90
2022/05/11 11:16:08;;;;;;;1.60;0.90;;;28.00;75.70;;;;;;5051033;28;20021;-91
2022/05/11 11:18:41;;;;;;;1.50;0.80;;;27.90;75.40;;;;;;5049233;28;20040;-90
2022/05/11 11:21:13;;;;;;;2.08;1.05;;;27.90;75.80;;;;;;5051055;28;20090;-90
2022/05/11 11:24:06;;;;;;;1.30;0.75;;;28.20;74.70;;;;;;5051766;28;20605;-90
2022/05/11 11:27:05;;;;;;;1.40;0.60;;;28.40;75.50;;;;;;5049902;28;20052;-90
2022/05/11 11:30:00;;;;;;;2.30;0.93;;;28.40;72.90;;;;;;5017008;28;20033;-91
2022/05/11 11:32:27;;;;;;;1.85;0.77;;;28.70;70.80;;;;;;5047395;28;20037;-90
2022/05/11 11:35:22;;;;;;;1.77;0.90;;;28.40;71.80;;;;;;5047161;28;20473;-91
2022/05/11 11:38:01;;;;;;;1.38;0.80;;;28.50;71.10;;;;;;5041292;28;20020;-90
2022/05/11 11:40:30;;;;;;;3.38;1.00;;;28.30;70.20;;;;;;5047612;28;20033;-90
2022/05/11 11:42:56;;;;;;;1.70;0.80;;;28.60;69.60;;;;;;5047660;28;20021;-89
2022/05/11 11:45:29;;;;;;;2.30;0.80;;;28.70;70.20;;;;;;5044167;28;20033;-88
2022/05/11 11:48:01;;;;;;;2.40;1.10;;;29.10;67.80;;;;;;5049683;28;20017;-89
2022/05/11 11:50:55;;;;;;;1.60;0.70;;;28.80;67.60;;;;;;5044511;28;20053;-88
2022/05/11 11:53:23;;;;;;;1.55;0.70;;;28.90;66.50;;;;;;5044415;28;20052;-89
2022/05/11 11:55:51;;;;;;;1.00;0.63;;;29.10;67.30;;;;;;5049296;28;20549;-90
2022/05/11 11:58:27;;;;;;;1.80;0.90;;;29.40;65.90;;;;;;5050387;28;20063;-91
2022/05/11 12:01:01;;;;;;;1.15;0.60;;;29.60;65.20;;;;;;5042707;28;20048;-90
2022/05/11 12:03:34;;;;;;;1.48;0.60;;;29.10;63.40;;;;;;5041598;28;20055;-91
2022/05/11 12:17:33;;;;;;;1.35;0.75;;;29.00;62.40;;;;;;5044899;28;19983;-90
2022/05/11 12:20:04;;;;;;;1.38;0.68;;;29.60;62.70;;;;;;5049520;28;20115;-91
2022/05/11 12:22:31;;;;;;;1.05;0.50;;;29.60;59.90;;;;;;5045803;28;20025;-91
2022/05/11 12:25:19;;;;;;;2.33;0.63;;;29.90;59.00;;;;;;5046252;28;20041;-91
2022/05/11 12:27:47;;;;;;;1.90;1.08;;;30.10;59.50;;;;;;5046339;28;20021;-91
2022/05/11 12:30:18;;;;;;;1.42;0.70;;;30.20;61.20;;;;;;5042179;28;20025;-92
2022/05/11 12:33:04;;;;;;;1.73;0.80;;;30.30;61.90;;;;;;5044354;28;20029;-91
2022/05/11 12:35:33;;;;;;;1.83;1.00;;;30.10;59.70;;;;;;5047366;28;20017;-92
2022/05/11 12:38:04;;;;;;;1.73;0.75;;;30.40;59.80;;;;;;5045726;28;20029;-92
2022/05/11 12:40:40;;;;;;;1.77;0.68;;;30.20;59.00;;;;;;5042708;28;20021;-91
2022/05/11 12:43:39;;;;;;;0.90;0.50;;;30.80;59.30;;;;;;5045057;28;20506;-90
2022/05/11 12:46:10;;;;;;;1.35;0.60;;;30.80;57.50;;;;;;5046844;28;20748;-91
2022/05/11 12:48:56;;;;;;;1.23;0.50;;;30.60;57.10;;;;;;5034656;28;20033;-91
2022/05/11 12:51:40;;;;;;;1.33;0.70;;;30.90;56.90;;;;;;5040430;28;20030;-91
2022/05/11 12:54:09;;;;;;;1.90;0.80;;;31.10;58.10;;;;;;5044909;28;20108;-91
2022/05/11 12:56:43;;;;;;;1.42;0.75;;;30.80;56.10;;;;;;5037545;28;20108;-91
2022/05/11 12:59:24;;;;;;;2.83;0.70;;;31.00;56.30;;;;;;5048280;28;20137;-91
2022/05/11 13:01:50;;;;;;;1.30;0.68;;;30.40;55.90;;;;;;5045437;28;20472;-90
2022/05/11 13:04:18;;;;;;;1.98;0.70;;;30.60;57.80;;;;;;5045983;28;20063;-90
2022/05/11 13:06:46;;;;;;;1.50;0.70;;;30.40;57.80;;;;;;5045484;28;20116;-91
2022/05/11 13:09:23;;;;;;;1.67;0.63;;;30.20;57.90;;;;;;5045606;28;20123;-91
2022/05/11 13:11:49;;;;;;;2.95;0.82;;;30.10;56.70;;;;;;5046704;28;20025;-91
2022/05/11 13:14:17;;;;;;;1.20;0.60;;;30.40;58.90;;;;;;5045591;28;20040;-91
2022/05/11 13:16:50;;;;;;;3.15;0.98;;;30.90;57.70;;;;;;5046120;28;20121;-89
2022/05/11 13:19:29;;;;;;;1.30;0.68;;;31.00;57.60;;;;;;5042018;28;20032;-90
2022/05/11 13:22:05;;;;;;;2.85;0.73;;;31.30;56.90;;;;;;5045556;28;20024;-90
2022/05/11 13:24:44;;;;;;;3.72;0.70;;;31.60;55.40;;;;;;5041288;28;20103;-90
2022/05/11 13:27:48;;;;;;;1.75;0.85;;;31.70;54.40;;;;;;5036585;28;20029;-89
2022/05/11 13:30:16;;;;;;;2.15;0.85;;;31.50;54.40;;;;;;5036838;28;20031;-90
2022/05/11 13:32:49;;;;;;;1.40;0.60;;;31.50;54.80;;;;;;5036020;28;20103;-91
2022/05/11 13:35:37;;;;;;;1.20;0.52;;;31.70;54.50;;;;;;5051300;28;20060;-91
2022/05/11 13:39:08;;;;;;;1.38;0.65;;;31.70;53.70;;;;;;5057912;28;20033;-93
2022/05/11 13:52:47;;;;;;;3.40;0.80;;;31.70;52.80;;;;;;5024378;28;20029;-91
2022/05/11 13:59:35;;;;;;;1.13;0.57;;;31.90;52.30;;;;;;5067056;28;20078;-92
2022/05/11 14:06:41;;;;;;;;;;;;;;;;;;;;;
2022/05/11 14:09:57;;;;;;;1.50;0.65;;;32.60;51.00;;;;;;5078947;28;20116;-93
2022/05/11 19:33:58;;;;;;;1.20;0.60;;;22.90;57.60;;;;;;4984304;28;20181;-89
2022/05/11 19:37:31;;;;;;;2.40;0.70;;;22.80;59.20;;;;;;4958164;28;20039;-89
2022/05/11 19:43:09;;;;;;;1.10;0.50;;;22.70;59.90;;;;;;4926123;29;20046;-88
2022/05/11 19:49:05;;;;;;;1.70;0.50;;;22.40;60.10;;;;;;4898579;29;20554;-89
2022/05/11 19:58:21;;;;;;;0.77;0.50;;;22.10;60.30;;;;;;4875849;29;20068;-90
2022/05/11 20:01:13;;;;;;;1.20;0.75;;;22.10;59.30;;;;;;4875657;29;20033;-90
2022/05/11 20:07:08;;;;;;;1.13;0.40;;;22.10;57.40;;;;;;4866766;29;20068;-89
2022/05/11 20:09:49;;;;;;;0.85;0.40;;;22.10;56.80;;;;;;4859817;29;20045;-90
2022/05/11 20:17:07;;;;;;;1.27;0.40;;;22.10;56.70;;;;;;4952244;28;20248;-89
2022/05/11 20:20:14;;;;;;;1.02;0.40;;;22.10;56.40;;;;;;4943015;28;20042;-89